Time;durP1;ratioP1;P1;durP2;ratioP2;P2;SDS_P1;SDS_P2;PMS_P1;PMS_P2;Temp;Humidity;BMP_temperature;BMP_pressure;BME280_temperature;BME280_humidity;BME280_pressure;Samples;Min_cycle;Max_cycle;Signal;HPM_P1;HPM_P2
2023/04/24 00:01:33;;;;;;;33.38;22.52;;;8.70;99.90;;;;;;5005053;28;20046;-56
2023/04/24 00:04:01;;;;;;;31.67;21.83;;;8.70;99.90;;;;;;5000291;28;20050;-57
2023/04/24 00:06:34;;;;;;;33.70;21.60;;;8.70;99.90;;;;;;4994970;28;20046;-56
2023/04/24 00:09:01;;;;;;;33.85;22.98;;;8.60;99.90;;;;;;4999750;28;20056;-56
2023/04/24 00:11:27;;;;;;;;;;;8.60;99.90;;;;;;4662315;28;10000157;-56
2023/04/24 00:13:55;;;;;;;30.33;21.77;;;8.60;99.90;;;;;;5009315;28;19925;-54
2023/04/24 00:16:22;;;;;;;32.08;21.95;;;8.60;99.90;;;;;;5010109;28;20043;-55
2023/04/24 00:18:48;;;;;;;33.17;21.88;;;8.60;99.90;;;;;;5001845;28;20129;-56
2023/04/24 00:21:18;;;;;;;31.55;21.52;;;8.60;99.90;;;;;;4989667;28;20077;-56
2023/04/24 00:23:45;;;;;;;31.63;19.75;;;8.70;99.90;;;;;;4996881;28;20057;-55
2023/04/24 00:26:11;;;;;;;29.77;20.60;;;8.60;99.90;;;;;;5010297;28;20137;-56
2023/04/24 00:28:38;;;;;;;30.70;21.27;;;8.60;99.90;;;;;;5005637;28;20140;-54
2023/04/24 00:31:05;;;;;;;29.45;20.08;;;8.60;99.90;;;;;;4991025;28;20054;-62
2023/04/24 00:33:32;;;;;;;31.90;20.58;;;8.60;99.90;;;;;;5000244;28;20065;-59
2023/04/24 00:35:58;;;;;;;27.00;19.35;;;8.70;99.90;;;;;;4991790;28;20057;-54
2023/04/24 00:38:25;;;;;;;30.50;20.00;;;8.60;99.90;;;;;;4995001;28;20046;-55
2023/04/24 00:40:53;;;;;;;30.98;19.85;;;8.60;99.90;;;;;;5006126;28;20088;-56
2023/04/24 00:43:20;;;;;;;29.63;21.30;;;8.60;99.90;;;;;;5004570;28;20052;-54
2023/04/24 00:45:47;;;;;;;34.28;21.08;;;8.60;99.90;;;;;;4996335;28;20157;-55
2023/04/24 00:48:14;;;;;;;27.92;20.55;;;8.60;99.90;;;;;;4992499;28;20132;-55
2023/04/24 00:50:40;;;;;;;28.77;19.42;;;8.60;99.90;;;;;;4996937;28;20050;-55
2023/04/24 00:53:07;;;;;;;32.17;20.63;;;8.60;99.90;;;;;;4993904;28;20149;-55
2023/04/24 00:55:34;;;;;;;31.83;22.02;;;8.60;99.90;;;;;;4999606;28;20108;-53
2023/04/24 00:58:01;;;;;;;28.63;19.90;;;8.60;99.90;;;;;;4991570;28;20484;-55
2023/04/24 01:00:27;;;;;;;30.23;20.45;;;8.60;99.90;;;;;;4998392;28;20046;-55
2023/04/24 01:02:55;;;;;;;29.27;19.85;;;8.60;99.90;;;;;;5009401;28;20057;-56
2023/04/24 01:05:22;;;;;;;31.17;19.92;;;8.60;99.90;;;;;;4999858;28;20081;-55
2023/04/24 01:07:48;;;;;;;26.25;18.02;;;8.60;99.90;;;;;;4989521;28;20496;-57
2023/04/24 01:10:17;;;;;;;29.83;19.90;;;8.60;99.90;;;;;;4995970;28;20053;-60
2023/04/24 01:12:45;;;;;;;27.73;19.08;;;8.60;99.90;;;;;;5005635;28;20125;-57
2023/04/24 01:15:12;;;;;;;31.23;20.20;;;8.60;99.90;;;;;;5001813;28;20128;-57
2023/04/24 01:17:39;;;;;;;30.38;20.38;;;8.60;99.90;;;;;;4988928;28;20054;-55
2023/04/24 01:20:06;;;;;;;28.75;19.17;;;8.60;99.90;;;;;;4992278;28;20050;-56
2023/04/24 01:22:34;;;;;;;28.20;19.05;;;8.60;99.90;;;;;;4989357;28;20171;-55
2023/04/24 01:25:01;;;;;;;27.08;19.23;;;8.60;99.90;;;;;;4993501;28;20051;-54
2023/04/24 01:27:28;;;;;;;29.67;19.48;;;8.60;99.90;;;;;;4987920;28;20060;-55
2023/04/24 01:29:55;;;;;;;30.85;19.60;;;8.60;99.90;;;;;;5005434;28;20275;-54
2023/04/24 01:32:21;;;;;;;27.15;19.75;;;8.60;99.90;;;;;;4994286;28;20137;-52
2023/04/24 01:34:48;;;;;;;25.73;18.20;;;8.70;99.90;;;;;;4991717;28;20060;-57
2023/04/24 01:37:15;;;;;;;29.77;19.50;;;8.70;99.90;;;;;;5000756;28;20053;-63
2023/04/24 01:39:43;;;;;;;26.67;18.42;;;8.60;99.90;;;;;;5004107;28;20573;-55
2023/04/24 01:42:10;;;;;;;27.30;19.33;;;8.60;99.90;;;;;;4999174;28;20120;-55
2023/04/24 01:44:37;;;;;;;28.60;19.15;;;8.70;99.90;;;;;;4989407;28;20034;-57
2023/04/24 01:47:04;;;;;;;27.02;18.83;;;8.60;99.90;;;;;;4997390;28;20060;-55
2023/04/24 01:49:30;;;;;;;25.70;18.60;;;8.70;99.90;;;;;;5006707;28;20136;-55
2023/04/24 01:51:57;;;;;;;27.50;19.05;;;8.60;99.90;;;;;;4999643;28;20090;-53
2023/04/24 01:54:24;;;;;;;29.48;20.38;;;8.60;99.90;;;;;;5000496;28;20041;-55
2023/04/24 01:56:51;;;;;;;26.10;19.05;;;8.60;99.90;;;;;;4995323;28;20050;-55
2023/04/24 01:59:18;;;;;;;28.10;19.38;;;8.60;99.90;;;;;;5007181;28;20129;-56
2023/04/24 02:01:45;;;;;;;29.00;19.58;;;8.70;99.90;;;;;;5001241;28;20128;-55
2023/04/24 02:04:12;;;;;;;28.50;19.13;;;8.60;99.90;;;;;;4987552;28;20086;-53
2023/04/24 02:06:39;;;;;;;25.67;18.70;;;8.60;99.90;;;;;;4992218;28;20073;-55
2023/04/24 02:09:06;;;;;;;31.25;18.23;;;8.60;99.90;;;;;;5006556;28;20081;-56
2023/04/24 02:11:32;;;;;;;30.58;18.75;;;8.60;99.90;;;;;;4998179;28;20137;-57
2023/04/24 02:13:59;;;;;;;30.20;18.85;;;8.60;99.90;;;;;;5004194;28;20160;-55
2023/04/24 02:16:26;;;;;;;30.33;19.00;;;8.60;99.90;;;;;;5003881;28;20133;-51
2023/04/24 02:18:53;;;;;;;30.55;18.33;;;8.60;99.90;;;;;;4993262;28;20070;-55
2023/04/24 02:21:19;;;;;;;29.92;18.65;;;8.60;99.90;;;;;;4992450;28;20073;-55
2023/04/24 02:23:46;;;;;;;26.02;18.58;;;8.60;99.90;;;;;;4997988;28;20125;-56
2023/04/24 02:26:13;;;;;;;26.25;17.77;;;8.60;99.90;;;;;;4992710;28;20050;-56
2023/04/24 02:28:40;;;;;;;26.50;18.88;;;8.60;99.90;;;;;;4998775;28;20045;-55
2023/04/24 02:31:07;;;;;;;26.98;19.17;;;8.60;99.90;;;;;;4989503;28;20125;-55
2023/04/24 02:33:33;;;;;;;29.33;18.65;;;8.60;99.90;;;;;;4998795;28;20050;-56
2023/04/24 02:36:00;;;;;;;25.80;18.65;;;8.60;99.90;;;;;;4988768;28;20081;-54
2023/04/24 02:38:27;;;;;;;30.65;18.80;;;8.50;99.90;;;;;;4996283;28;20133;-51
2023/04/24 02:40:54;;;;;;;28.92;18.75;;;8.50;99.90;;;;;;5007328;28;20069;-56
2023/04/24 02:43:20;;;;;;;25.85;18.25;;;8.50;99.90;;;;;;5000896;28;20405;-55
2023/04/24 02:45:47;;;;;;;26.15;18.67;;;8.50;99.90;;;;;;4988379;28;20046;-55
2023/04/24 02:48:14;;;;;;;24.10;16.88;;;8.50;99.90;;;;;;4994682;28;20069;-56
2023/04/24 02:50:41;;;;;;;27.08;18.17;;;8.40;99.90;;;;;;4988051;28;20051;-56
2023/04/24 02:53:08;;;;;;;26.42;17.23;;;8.40;99.90;;;;;;4993203;28;20056;-55
2023/04/24 02:55:35;;;;;;;25.02;16.13;;;8.30;99.90;;;;;;5007560;28;20073;-56
2023/04/24 02:58:02;;;;;;;26.10;17.75;;;8.30;99.90;;;;;;4992292;28;20130;-55
2023/04/24 03:00:29;;;;;;;26.08;16.98;;;8.30;99.90;;;;;;5003243;28;20042;-59
2023/04/24 03:02:56;;;;;;;23.85;16.65;;;8.40;99.90;;;;;;5003438;28;20416;-56
2023/04/24 03:05:23;;;;;;;25.45;16.33;;;8.40;99.90;;;;;;4994067;28;20047;-55
2023/04/24 03:07:52;;;;;;;25.50;16.65;;;8.40;99.90;;;;;;4991769;28;20081;-57
2023/04/24 03:10:19;;;;;;;24.15;16.52;;;8.30;99.90;;;;;;4999651;28;20138;-56
2023/04/24 03:12:46;;;;;;;27.67;16.13;;;8.30;99.90;;;;;;5004980;28;20068;-56
2023/04/24 03:15:12;;;;;;;19.73;14.65;;;8.30;99.90;;;;;;5001037;28;20047;-57
2023/04/24 03:17:39;;;;;;;24.95;16.35;;;8.30;99.90;;;;;;4991262;28;20056;-56
2023/04/24 03:20:07;;;;;;;25.98;16.38;;;8.30;99.90;;;;;;5002821;28;20391;-58
2023/04/24 03:22:34;;;;;;;28.05;18.55;;;8.20;99.90;;;;;;4991783;28;20149;-56
2023/04/24 03:25:01;;;;;;;23.70;15.60;;;8.30;99.90;;;;;;5000279;28;20042;-57
2023/04/24 03:27:28;;;;;;;25.17;15.75;;;8.30;99.90;;;;;;5011154;28;20054;-55
2023/04/24 03:29:55;;;;;;;22.17;14.63;;;8.30;99.90;;;;;;5004480;28;20081;-57
2023/04/24 03:32:22;;;;;;;22.00;14.57;;;8.20;99.90;;;;;;4991510;28;20562;-57
2023/04/24 03:34:49;;;;;;;20.80;14.95;;;8.20;99.90;;;;;;4995020;28;20058;-56
2023/04/24 03:37:16;;;;;;;22.80;14.93;;;8.20;99.90;;;;;;5009852;28;20091;-55
2023/04/24 03:39:43;;;;;;;19.05;14.40;;;8.20;99.90;;;;;;5005362;28;20053;-56
2023/04/24 03:42:10;;;;;;;22.75;15.77;;;8.20;99.90;;;;;;4993106;28;20109;-56
2023/04/24 03:44:37;;;;;;;22.05;15.27;;;8.20;99.90;;;;;;4994817;28;20489;-56
2023/04/24 03:47:04;;;;;;;24.98;15.60;;;8.20;99.90;;;;;;5005499;28;20591;-57
2023/04/24 03:49:31;;;;;;;25.13;15.98;;;8.10;99.90;;;;;;5006370;28;20165;-56
2023/04/24 03:51:58;;;;;;;18.80;13.82;;;8.20;99.90;;;;;;4997330;28;20084;-56
2023/04/24 03:54:25;;;;;;;21.75;15.80;;;8.20;99.90;;;;;;4998728;28;20046;-56
2023/04/24 03:56:51;;;;;;;26.27;15.25;;;8.20;99.90;;;;;;4999088;28;20521;-57
2023/04/24 03:59:18;;;;;;;22.25;15.68;;;8.20;99.90;;;;;;4994882;28;20042;-57
2023/04/24 04:01:45;;;;;;;19.88;15.50;;;8.20;99.90;;;;;;4999599;28;20137;-57
2023/04/24 04:04:12;;;;;;;21.58;14.25;;;8.20;99.90;;;;;;5006464;28;20042;-57
2023/04/24 04:06:39;;;;;;;24.20;15.38;;;8.20;99.90;;;;;;5010128;28;20050;-56
2023/04/24 04:09:06;;;;;;;24.55;14.88;;;8.10;99.90;;;;;;5008684;28;20129;-55
2023/04/24 04:11:33;;;;;;;21.85;15.20;;;8.10;99.90;;;;;;4999036;28;20052;-57
2023/04/24 04:14:00;;;;;;;29.50;16.67;;;8.20;99.90;;;;;;5010829;28;20045;-55
2023/04/24 04:16:27;;;;;;;22.90;15.15;;;8.20;99.90;;;;;;5003798;28;20072;-57
2023/04/24 04:18:53;;;;;;;26.02;16.00;;;8.20;99.90;;;;;;5001612;28;20042;-56
2023/04/24 04:21:20;;;;;;;21.90;14.95;;;8.10;99.90;;;;;;4993943;28;20502;-56
2023/04/24 04:23:48;;;;;;;23.10;14.93;;;8.10;99.90;;;;;;5004481;28;20437;-56
2023/04/24 04:26:14;;;;;;;19.08;14.23;;;8.20;99.90;;;;;;4994491;28;20535;-57
2023/04/24 04:28:41;;;;;;;21.98;13.85;;;8.10;99.90;;;;;;5006525;28;20050;-56
2023/04/24 04:31:08;;;;;;;23.63;13.93;;;8.20;99.90;;;;;;5004571;28;20580;-55
2023/04/24 04:33:35;;;;;;;25.85;16.85;;;8.00;99.90;;;;;;4993296;28;20051;-58
2023/04/24 04:36:03;;;;;;;23.42;15.18;;;8.00;99.90;;;;;;4993039;28;20511;-58
2023/04/24 04:38:30;;;;;;;25.23;16.10;;;7.90;99.90;;;;;;5003384;28;20232;-58
2023/04/24 04:40:57;;;;;;;28.58;15.82;;;7.80;99.90;;;;;;5005674;28;20085;-58
2023/04/24 04:43:24;;;;;;;27.30;15.38;;;7.80;99.90;;;;;;4998800;28;20081;-57
2023/04/24 04:45:51;;;;;;;21.77;15.05;;;7.80;99.90;;;;;;4993774;28;20483;-57
2023/04/24 04:48:18;;;;;;;22.77;15.13;;;7.70;99.90;;;;;;4988808;28;20050;-57
2023/04/24 04:50:45;;;;;;;24.30;15.75;;;8.00;99.90;;;;;;4991475;28;20050;-57
2023/04/24 04:53:11;;;;;;;25.02;15.60;;;7.70;99.90;;;;;;4999881;28;20050;-58
2023/04/24 04:55:38;;;;;;;24.92;16.75;;;7.70;99.90;;;;;;4992768;28;20048;-57
2023/04/24 04:58:05;;;;;;;24.27;15.70;;;7.80;99.90;;;;;;5008686;28;20049;-57
2023/04/24 05:00:35;;;;;;;26.48;17.13;;;7.70;99.90;;;;;;4999905;28;20053;-56
2023/04/24 05:03:02;;;;;;;23.17;15.43;;;7.80;99.90;;;;;;4996113;28;20563;-57
2023/04/24 05:05:46;;;;;;;28.08;16.23;;;7.80;99.90;;;;;;4998235;28;20045;-58
2023/04/24 05:08:12;;;;;;;27.25;17.75;;;7.80;99.90;;;;;;5001332;28;20046;-57
2023/04/24 05:10:52;;;;;;;27.73;18.48;;;7.80;99.90;;;;;;4998534;28;20046;-58
2023/04/24 05:13:19;;;;;;;28.00;17.13;;;7.70;99.90;;;;;;5002980;28;20149;-57
2023/04/24 05:16:01;;;;;;;27.50;17.27;;;7.70;99.90;;;;;;4998544;28;20501;-57
2023/04/24 05:18:28;;;;;;;30.02;17.17;;;7.70;99.90;;;;;;5002960;28;20104;-57
2023/04/24 05:20:55;;;;;;;27.20;18.05;;;7.70;99.90;;;;;;4996050;28;20056;-57
2023/04/24 05:23:22;;;;;;;26.33;16.55;;;7.70;99.90;;;;;;5003527;28;20050;-57
2023/04/24 05:25:49;;;;;;;26.98;17.17;;;7.70;99.90;;;;;;4993609;28;20077;-57
2023/04/24 05:28:15;;;;;;;25.58;17.50;;;7.70;99.90;;;;;;5004591;28;20097;-57
2023/04/24 05:30:42;;;;;;;23.00;16.42;;;7.80;99.90;;;;;;4992379;28;20122;-58
2023/04/24 05:33:09;;;;;;;25.35;15.32;;;7.80;99.90;;;;;;5000780;28;20058;-57
2023/04/24 05:35:36;;;;;;;24.10;16.17;;;7.70;99.90;;;;;;5000760;28;20095;-57
2023/04/24 05:38:03;;;;;;;24.48;17.00;;;7.70;99.90;;;;;;5003577;28;20112;-57
2023/04/24 05:40:30;;;;;;;25.52;15.75;;;7.80;99.90;;;;;;5007872;28;20042;-58
2023/04/24 05:42:56;;;;;;;26.00;16.65;;;7.80;99.90;;;;;;5003456;28;20074;-57
2023/04/24 05:45:23;;;;;;;27.05;16.05;;;7.90;99.90;;;;;;4998592;28;20050;-56
2023/04/24 05:47:52;;;;;;;21.52;14.75;;;7.90;99.90;;;;;;5002220;28;20141;-57
2023/04/24 05:50:19;;;;;;;23.13;16.00;;;8.00;99.90;;;;;;4997556;28;20592;-57
2023/04/24 05:52:45;;;;;;;21.73;14.65;;;8.00;99.90;;;;;;5002133;28;20981;-56
2023/04/24 05:55:13;;;;;;;23.52;15.20;;;7.90;99.90;;;;;;4996286;28;20052;-55
2023/04/24 05:57:39;;;;;;;23.73;14.95;;;7.90;99.90;;;;;;5005748;28;20092;-56
2023/04/24 06:00:08;;;;;;;26.80;13.77;;;8.00;99.90;;;;;;4997090;28;20042;-57
2023/04/24 06:02:35;;;;;;;20.77;14.27;;;8.00;99.90;;;;;;4999331;28;20054;-56
2023/04/24 06:05:02;;;;;;;25.73;15.80;;;8.00;99.90;;;;;;5002127;28;20042;-57
2023/04/24 06:07:29;;;;;;;18.70;12.60;;;8.00;99.90;;;;;;4995641;28;20046;-58
2023/04/24 06:09:56;;;;;;;23.08;13.35;;;8.00;99.90;;;;;;5001472;28;20050;-56
2023/04/24 06:12:23;;;;;;;23.08;13.38;;;8.00;99.90;;;;;;4995350;28;20085;-56
2023/04/24 06:14:50;;;;;;;18.90;13.23;;;8.10;99.90;;;;;;4991312;28;20502;-56
2023/04/24 06:17:16;;;;;;;17.73;13.68;;;8.10;99.90;;;;;;5002892;28;20129;-57
2023/04/24 06:19:43;;;;;;;23.60;13.85;;;8.10;99.90;;;;;;4992493;28;20133;-59
2023/04/24 06:22:10;;;;;;;22.63;12.25;;;8.20;99.90;;;;;;5001979;28;20061;-56
2023/04/24 06:24:37;;;;;;;22.52;15.48;;;8.10;99.90;;;;;;4995988;28;20076;-55
2023/04/24 06:27:04;;;;;;;24.33;14.23;;;8.20;99.90;;;;;;5004602;28;20074;-56
2023/04/24 06:29:30;;;;;;;20.58;13.85;;;8.20;99.90;;;;;;4995143;28;20048;-57
2023/04/24 06:31:57;;;;;;;18.63;13.70;;;8.30;99.90;;;;;;4998987;28;20237;-57
2023/04/24 06:34:24;;;;;;;14.95;8.52;;;8.40;99.90;;;;;;4993311;28;20456;-58
2023/04/24 06:36:51;;;;;;;12.38;7.95;;;8.50;99.90;;;;;;4994351;28;20056;-58
2023/04/24 06:39:18;;;;;;;8.63;6.05;;;8.50;99.90;;;;;;5001633;28;20528;-57
2023/04/24 06:41:45;;;;;;;11.27;4.28;;;8.60;99.90;;;;;;4997562;28;20525;-58
2023/04/24 06:44:11;;;;;;;9.63;4.75;;;8.60;99.90;;;;;;4998507;28;20049;-57
2023/04/24 06:46:38;;;;;;;22.15;4.78;;;8.60;99.90;;;;;;5005884;28;20053;-56
2023/04/24 06:49:07;;;;;;;10.40;4.70;;;8.60;99.90;;;;;;4999815;28;20042;-56
2023/04/24 06:51:34;;;;;;;11.60;5.13;;;8.70;99.90;;;;;;5005127;28;20061;-55
2023/04/24 06:54:01;;;;;;;14.70;4.15;;;8.70;99.90;;;;;;5006070;28;20061;-56
2023/04/24 06:56:29;;;;;;;9.38;3.58;;;8.70;99.90;;;;;;5005601;28;20077;-55
2023/04/24 06:58:56;;;;;;;7.22;2.72;;;8.80;99.90;;;;;;4995035;28;20045;-55
2023/04/24 07:01:22;;;;;;;12.55;5.13;;;8.70;99.90;;;;;;4998081;28;20042;-55
2023/04/24 07:03:49;;;;;;;7.72;2.55;;;8.80;99.90;;;;;;5004035;28;20054;-55
2023/04/24 07:06:18;;;;;;;9.23;3.13;;;8.80;99.90;;;;;;5005170;28;20046;-54
2023/04/24 07:08:45;;;;;;;8.50;2.85;;;8.80;99.90;;;;;;4996273;28;20197;-55
2023/04/24 07:11:12;;;;;;;18.40;3.00;;;8.80;99.90;;;;;;4988223;28;20042;-55
2023/04/24 07:13:41;;;;;;;9.50;3.22;;;8.90;99.90;;;;;;4999064;28;20050;-56
2023/04/24 07:16:09;;;;;;;12.32;2.95;;;8.80;99.90;;;;;;5003938;28;20056;-54
2023/04/24 07:18:36;;;;;;;13.02;3.80;;;8.80;99.90;;;;;;4999624;28;20146;-55
2023/04/24 07:21:03;;;;;;;10.05;3.03;;;8.80;99.90;;;;;;4998220;28;20081;-58
2023/04/24 07:23:31;;;;;;;8.80;3.05;;;8.80;99.90;;;;;;4999630;28;20100;-57
2023/04/24 07:25:57;;;;;;;5.47;2.42;;;8.70;99.90;;;;;;4997852;28;20050;-58
2023/04/24 07:28:24;;;;;;;7.70;2.38;;;8.80;99.90;;;;;;4999273;28;20133;-57
2023/04/24 07:30:53;;;;;;;8.95;3.13;;;8.80;99.90;;;;;;4998608;28;20061;-57
2023/04/24 07:33:20;;;;;;;14.07;3.67;;;8.70;99.90;;;;;;5001429;28;20146;-56
2023/04/24 07:35:47;;;;;;;6.50;3.05;;;8.80;99.90;;;;;;5000550;28;20104;-59
2023/04/24 07:38:14;;;;;;;5.78;3.08;;;8.70;99.90;;;;;;4992937;28;20502;-54
2023/04/24 07:40:41;;;;;;;20.60;5.78;;;8.70;99.90;;;;;;4998082;28;20070;-59
2023/04/24 07:43:08;;;;;;;8.23;2.80;;;8.80;99.90;;;;;;5005436;28;20061;-56
2023/04/24 07:45:37;;;;;;;4.60;2.80;;;8.80;99.90;;;;;;4994386;28;20073;-57
2023/04/24 07:48:04;;;;;;;11.07;3.00;;;8.90;99.90;;;;;;5005770;28;20045;-56
2023/04/24 07:50:31;;;;;;;5.10;2.45;;;8.80;99.90;;;;;;4994490;28;20493;-57
2023/04/24 07:52:58;;;;;;;14.57;3.25;;;8.80;99.90;;;;;;5003572;28;20062;-56
2023/04/24 07:55:24;;;;;;;11.93;3.05;;;8.80;99.90;;;;;;4992014;28;20073;-54
2023/04/24 07:57:53;;;;;;;8.02;3.55;;;8.80;99.90;;;;;;4998375;28;20050;-55
2023/04/24 08:00:20;;;;;;;5.68;2.42;;;8.90;99.90;;;;;;5000161;28;20081;-56
2023/04/24 08:02:47;;;;;;;11.02;3.63;;;8.90;99.90;;;;;;4999233;28;20493;-53
2023/04/24 08:05:14;;;;;;;7.85;2.28;;;8.90;99.90;;;;;;4989831;28;20077;-56
2023/04/24 08:07:45;;;;;;;7.60;2.80;;;8.90;99.90;;;;;;5000353;28;20053;-55
2023/04/24 08:10:13;;;;;;;20.05;5.20;;;8.90;99.90;;;;;;4998163;28;20133;-55
2023/04/24 08:12:40;;;;;;;9.15;2.83;;;8.90;99.90;;;;;;5001458;28;20125;-56
2023/04/24 08:15:07;;;;;;;7.35;2.35;;;8.90;99.90;;;;;;5000972;28;20057;-56
2023/04/24 08:17:35;;;;;;;8.35;2.80;;;8.90;99.90;;;;;;4996495;28;20577;-56
2023/04/24 08:20:05;;;;;;;11.20;2.58;;;9.00;99.90;;;;;;5000753;28;20081;-55
2023/04/24 08:22:32;;;;;;;8.25;2.53;;;9.00;99.90;;;;;;4999599;28;20054;-56
2023/04/24 08:24:59;;;;;;;5.50;2.28;;;9.00;99.90;;;;;;5001486;28;20042;-55
2023/04/24 08:27:26;;;;;;;7.03;2.50;;;9.10;99.90;;;;;;4999130;28;20153;-56
2023/04/24 08:29:53;;;;;;;10.60;2.85;;;9.10;99.90;;;;;;5001419;28;20057;-52
2023/04/24 08:32:20;;;;;;;9.98;2.22;;;9.20;99.90;;;;;;4994117;28;20192;-60
2023/04/24 08:34:47;;;;;;;7.30;2.30;;;9.30;99.90;;;;;;4992492;28;20138;-55
2023/04/24 08:37:15;;;;;;;4.68;2.20;;;9.40;99.90;;;;;;5004038;28;20295;-55
2023/04/24 08:39:42;;;;;;;10.18;2.70;;;9.50;99.90;;;;;;4993680;28;20073;-55
2023/04/24 08:42:09;;;;;;;8.93;3.17;;;9.50;99.90;;;;;;5003268;28;20073;-55
2023/04/24 08:44:37;;;;;;;22.33;3.60;;;9.60;99.90;;;;;;4993881;28;20141;-58
2023/04/24 08:47:03;;;;;;;9.77;2.78;;;9.70;99.90;;;;;;4999482;28;20141;-57
2023/04/24 08:49:30;;;;;;;14.93;3.63;;;9.80;99.90;;;;;;5001552;28;20054;-55
2023/04/24 08:51:59;;;;;;;9.18;3.38;;;9.70;99.90;;;;;;4997252;28;20497;-56
2023/04/24 08:54:26;;;;;;;9.98;2.97;;;9.70;99.90;;;;;;5004758;28;20046;-57
2023/04/24 08:56:53;;;;;;;12.48;3.58;;;9.90;99.90;;;;;;4995913;28;20043;-57
2023/04/24 08:59:20;;;;;;;6.07;3.58;;;10.00;99.90;;;;;;4998323;28;20047;-58
2023/04/24 09:01:47;;;;;;;11.15;3.33;;;10.20;99.90;;;;;;4997560;28;20049;-56
2023/04/24 09:04:15;;;;;;;8.13;3.00;;;10.40;99.90;;;;;;4999881;28;20053;-56
2023/04/24 09:06:43;;;;;;;6.70;2.75;;;10.30;99.90;;;;;;4998563;28;20497;-57
2023/04/24 09:09:09;;;;;;;16.15;3.88;;;10.30;99.90;;;;;;5000329;28;20153;-58
2023/04/24 09:11:36;;;;;;;8.48;3.15;;;10.40;99.90;;;;;;4998468;28;20050;-57
2023/04/24 09:14:03;;;;;;;15.85;3.97;;;10.50;99.90;;;;;;4997236;28;20064;-58
2023/04/24 09:16:29;;;;;;;13.65;4.80;;;10.60;99.90;;;;;;4984291;28;20789;-58
2023/04/24 09:18:56;;;;;;;15.18;3.67;;;10.70;99.90;;;;;;4989228;28;20058;-57
2023/04/24 09:21:23;;;;;;;8.35;3.65;;;10.80;99.90;;;;;;5000823;28;20056;-57
2023/04/24 09:24:00;;;;;;;11.90;3.88;;;10.80;99.90;;;;;;4993875;28;20156;-56
2023/04/24 09:26:35;;;;;;;6.22;2.97;;;10.70;99.90;;;;;;5004090;28;20472;-57
2023/04/24 09:29:02;;;;;;;16.75;4.07;;;10.70;99.90;;;;;;4991399;28;20054;-57
2023/04/24 09:31:29;;;;;;;6.78;2.97;;;10.70;99.90;;;;;;4992353;28;20141;-57
2023/04/24 09:34:08;;;;;;;9.82;3.60;;;10.80;99.90;;;;;;5002871;28;20068;-58
2023/04/24 09:36:39;;;;;;;14.23;3.33;;;11.10;99.90;;;;;;4992331;28;20465;-56
2023/04/24 09:39:10;;;;;;;8.45;3.22;;;11.20;99.90;;;;;;5003102;28;20038;-58
2023/04/24 09:41:47;;;;;;;8.15;3.63;;;11.30;99.90;;;;;;4992064;28;20395;-56
2023/04/24 09:44:15;;;;;;;8.05;3.20;;;11.30;99.90;;;;;;5002856;28;20069;-54
2023/04/24 09:46:45;;;;;;;9.13;3.60;;;11.30;99.90;;;;;;4990933;28;20046;-58
2023/04/24 09:49:16;;;;;;;20.08;4.05;;;11.20;99.90;;;;;;5003241;28;20428;-58
2023/04/24 09:51:43;;;;;;;17.88;5.50;;;11.40;99.90;;;;;;4990388;28;20082;-57
2023/04/24 09:54:20;;;;;;;11.45;3.08;;;11.60;99.90;;;;;;4995476;28;20498;-58
2023/04/24 09:56:49;;;;;;;5.93;2.78;;;11.90;99.90;;;;;;5002489;28;20053;-59
2023/04/24 09:59:19;;;;;;;9.88;3.83;;;11.80;99.90;;;;;;5004606;28;20054;-56
2023/04/24 10:01:48;;;;;;;9.13;4.47;;;11.90;99.90;;;;;;5000155;28;20058;-56
2023/04/24 10:04:19;;;;;;;6.53;3.08;;;11.80;99.90;;;;;;4995240;28;20132;-57
2023/04/24 10:06:47;;;;;;;8.65;3.67;;;11.80;99.90;;;;;;5002045;28;20058;-54
2023/04/24 10:09:16;;;;;;;8.90;3.95;;;11.70;99.90;;;;;;4996741;28;20477;-57
2023/04/24 10:11:45;;;;;;;7.80;3.30;;;11.80;99.90;;;;;;4995273;28;20542;-57
2023/04/24 10:14:20;;;;;;;9.90;3.33;;;11.70;99.90;;;;;;4997278;28;20042;-55
2023/04/24 10:16:47;;;;;;;12.45;3.88;;;11.60;99.90;;;;;;4993786;28;20041;-57
2023/04/24 10:19:15;;;;;;;9.23;3.88;;;11.50;99.90;;;;;;4979859;28;20064;-56
2023/04/24 10:21:42;;;;;;;11.75;4.03;;;11.50;99.90;;;;;;4994334;28;20413;-57
2023/04/24 10:24:09;;;;;;;8.10;3.25;;;11.50;99.90;;;;;;4995291;28;20137;-54
2023/04/24 10:26:37;;;;;;;9.45;3.95;;;11.40;99.90;;;;;;4991421;28;20493;-56
2023/04/24 10:29:04;;;;;;;15.73;4.57;;;11.60;99.90;;;;;;4995378;28;20046;-56
2023/04/24 10:31:31;;;;;;;26.48;5.13;;;11.80;99.90;;;;;;4981204;28;20283;-56
2023/04/24 10:33:58;;;;;;;7.30;3.65;;;11.70;99.90;;;;;;4992618;28;20050;-59
2023/04/24 10:36:26;;;;;;;10.23;4.72;;;11.60;99.90;;;;;;5001081;28;20129;-53
2023/04/24 10:38:54;;;;;;;10.73;3.75;;;11.60;99.90;;;;;;4991594;28;20145;-56
2023/04/24 10:41:23;;;;;;;24.52;5.32;;;11.70;99.90;;;;;;4991628;28;20044;-55
2023/04/24 10:44:09;;;;;;;73.78;7.63;;;11.70;99.90;;;;;;4996848;28;20117;-56
2023/04/24 10:46:36;;;;;;;39.08;8.85;;;11.70;99.90;;;;;;4991720;28;20260;-56
2023/04/24 10:49:06;;;;;;;8.27;3.60;;;11.70;99.90;;;;;;4995494;28;20433;-55
2023/04/24 10:51:55;;;;;;;15.95;3.65;;;11.80;99.90;;;;;;5002416;28;20511;-56
2023/04/24 10:54:22;;;;;;;11.60;4.05;;;11.70;99.90;;;;;;4989612;28;20046;-57
2023/04/24 10:56:50;;;;;;;15.43;4.25;;;11.80;99.90;;;;;;4990942;28;20082;-56
2023/04/24 10:59:34;;;;;;;11.35;3.53;;;11.90;99.90;;;;;;4990456;28;20141;-55
2023/04/24 11:02:01;;;;;;;13.52;3.85;;;12.00;99.90;;;;;;5002692;28;20130;-56
2023/04/24 11:04:32;;;;;;;18.55;4.07;;;12.10;99.90;;;;;;4990257;28;20054;-56
2023/04/24 11:06:59;;;;;;;9.07;4.13;;;12.10;99.90;;;;;;5002567;28;20054;-56
2023/04/24 11:09:28;;;;;;;18.00;4.28;;;12.20;99.90;;;;;;4991731;28;20469;-57
2023/04/24 11:12:14;;;;;;;7.28;3.13;;;12.10;99.90;;;;;;5000692;28;20038;-55
2023/04/24 11:14:59;;;;;;;17.30;5.75;;;12.10;99.90;;;;;;4998339;28;20046;-56
2023/04/24 11:17:40;;;;;;;15.77;4.63;;;12.10;99.90;;;;;;4992709;28;20046;-56
2023/04/24 11:20:11;;;;;;;18.55;4.72;;;12.00;99.90;;;;;;5003321;28;20048;-60
2023/04/24 11:22:57;;;;;;;11.38;3.80;;;12.00;99.90;;;;;;5001695;28;20053;-55
2023/04/24 11:25:24;;;;;;;10.52;4.88;;;12.20;99.90;;;;;;5000483;28;20048;-56
2023/04/24 11:28:02;;;;;;;12.18;5.03;;;12.50;99.90;;;;;;5001970;28;20050;-55
2023/04/24 11:30:29;;;;;;;13.63;4.80;;;12.80;99.90;;;;;;4999967;28;20096;-55
2023/04/24 11:32:56;;;;;;;9.90;4.38;;;13.00;99.90;;;;;;4992742;28;20060;-56
2023/04/24 11:35:27;;;;;;;8.20;4.55;;;13.10;99.90;;;;;;5004922;28;20053;-56
2023/04/24 11:37:54;;;;;;;11.38;4.93;;;13.20;99.90;;;;;;4993866;28;20070;-55
2023/04/24 11:40:25;;;;;;;17.80;4.38;;;13.20;99.90;;;;;;5006615;28;20152;-56
2023/04/24 11:42:55;;;;;;;7.60;4.40;;;13.10;99.90;;;;;;4996557;28;20077;-56
2023/04/24 11:45:29;;;;;;;11.30;5.72;;;13.10;99.90;;;;;;5004855;28;20046;-56
2023/04/24 11:47:56;;;;;;;24.67;6.53;;;13.00;99.90;;;;;;4997019;28;20042;-59
2023/04/24 11:50:28;;;;;;;11.05;4.85;;;12.90;99.90;;;;;;5004008;28;20048;-55
2023/04/24 11:52:55;;;;;;;15.38;5.00;;;13.00;99.90;;;;;;5000661;28;20242;-55
2023/04/24 11:55:23;;;;;;;10.95;4.22;;;13.00;99.90;;;;;;5003218;28;20057;-55
2023/04/24 11:57:51;;;;;;;16.13;4.93;;;12.90;99.90;;;;;;4999355;28;20054;-55
2023/04/24 12:00:20;;;;;;;12.80;4.10;;;12.70;99.90;;;;;;5001115;28;20052;-56
2023/04/24 12:02:47;;;;;;;13.68;4.88;;;12.70;99.90;;;;;;4999237;28;20511;-56
2023/04/24 12:05:26;;;;;;;20.55;5.63;;;12.80;99.90;;;;;;4997798;28;20042;-56
2023/04/24 12:07:54;;;;;;;13.75;4.60;;;12.80;99.90;;;;;;4998612;28;20050;-56
2023/04/24 12:10:25;;;;;;;12.13;4.88;;;12.90;99.90;;;;;;4994883;28;20144;-55
2023/04/24 12:12:52;;;;;;;11.65;4.35;;;13.00;99.90;;;;;;4997704;28;20050;-56
2023/04/24 12:15:22;;;;;;;10.90;4.60;;;13.10;99.90;;;;;;4996890;28;20057;-56
2023/04/24 12:17:51;;;;;;;9.63;4.40;;;13.20;99.90;;;;;;4988969;28;20054;-56
2023/04/24 12:20:19;;;;;;;14.35;4.50;;;13.30;99.90;;;;;;5012271;28;20046;-55
2023/04/24 12:22:49;;;;;;;14.80;5.35;;;13.20;99.90;;;;;;4997032;28;20128;-55
2023/04/24 12:25:17;;;;;;;14.57;6.60;;;13.20;99.90;;;;;;5006183;28;20128;-56
2023/04/24 12:27:45;;;;;;;26.90;7.07;;;13.20;99.90;;;;;;4997768;28;20133;-56
2023/04/24 12:30:14;;;;;;;14.32;4.55;;;13.30;99.90;;;;;;5001740;28;20050;-55
2023/04/24 12:32:51;;;;;;;9.95;5.38;;;13.40;99.90;;;;;;4993733;28;20046;-54
2023/04/24 12:35:25;;;;;;;9.18;4.63;;;13.40;99.90;;;;;;4996166;28;20431;-55
2023/04/24 12:37:52;;;;;;;;;;;13.40;99.90;;;;;;4998221;28;20524;-56
2023/04/24 12:40:19;;;;;;;11.18;4.20;;;13.50;99.90;;;;;;4994451;28;19921;-59
2023/04/24 12:42:48;;;;;;;12.73;5.25;;;13.50;99.90;;;;;;5005443;28;20038;-55
2023/04/24 12:45:16;;;;;;;15.00;4.97;;;13.70;99.90;;;;;;4993635;28;20540;-56